sensor_id;sensor_type;location;lat;lon;timestamp;pressure;altitude;pressure_sealevel;temperature;humidity
10135;BME280;5107;48.850;8.924;2023-04-16T00:01:33;96714.47;;;7.32;99.60
10135;BME280;5107;48.850;8.924;2023-04-16T00:03:58;96717.91;;;7.33;99.55
10135;BME280;5107;48.850;8.924;2023-04-16T00:06:24;96717.56;;;7.28;100.00
10135;BME280;5107;48.850;8.924;2023-04-16T00:08:49;96711.72;;;7.34;99.97
10135;BME280;5107;48.850;8.924;2023-04-16T00:11:16;96713.56;;;7.41;99.98
10135;BME280;5107;48.850;8.924;2023-04-16T00:13:41;96713.50;;;7.51;99.25
10135;BME280;5107;48.850;8.924;2023-04-16T00:16:06;96719.50;;;7.43;99.12
10135;BME280;5107;48.850;8.924;2023-04-16T00:18:32;96722.09;;;7.43;99.18
10135;BME280;5107;48.850;8.924;2023-04-16T00:20:57;96715.38;;;7.41;99.26
10135;BME280;5107;48.850;8.924;2023-04-16T00:23:23;96711.25;;;7.38;99.33
10135;BME280;5107;48.850;8.924;2023-04-16T00:25:49;96719.09;;;7.38;99.30
10135;BME280;5107;48.850;8.924;2023-04-16T00:28:15;96725.84;;;7.41;99.70
10135;BME280;5107;48.850;8.924;2023-04-16T00:30:40;96715.50;;;7.39;99.16
10135;BME280;5107;48.850;8.924;2023-04-16T00:33:05;96719.25;;;7.37;99.87
10135;BME280;5107;48.850;8.924;2023-04-16T00:35:31;96714.69;;;7.39;100.00
10135;BME280;5107;48.850;8.924;2023-04-16T00:37:56;96723.81;;;7.35;99.66
10135;BME280;5107;48.850;8.924;2023-04-16T00:40:21;96728.47;;;7.41;99.73
10135;BME280;5107;48.850;8.924;2023-04-16T00:42:47;96723.38;;;7.39;99.93
10135;BME280;5107;48.850;8.924;2023-04-16T00:45:12;96723.38;;;7.39;99.41
10135;BME280;5107;48.850;8.924;2023-04-16T00:47:38;96721.44;;;7.41;99.70
10135;BME280;5107;48.850;8.924;2023-04-16T00:50:04;96720.75;;;7.39;99.32
10135;BME280;5107;48.850;8.924;2023-04-16T00:52:31;96723.06;;;7.42;99.41
10135;BME280;5107;48.850;8.924;2023-04-16T00:54:57;96720.75;;;7.39;98.89
10135;BME280;5107;48.850;8.924;2023-04-16T00:57:23;96724.19;;;7.40;99.20
10135;BME280;5107;48.850;8.924;2023-04-16T00:59:48;96723.91;;;7.43;99.47
10135;BME280;5107;48.850;8.924;2023-04-16T01:02:14;96727.16;;;7.45;99.13
10135;BME280;5107;48.850;8.924;2023-04-16T01:04:40;96725.56;;;7.44;99.24
10135;BME280;5107;48.850;8.924;2023-04-16T01:07:05;96720.38;;;7.52;99.47
10135;BME280;5107;48.850;8.924;2023-04-16T01:09:31;96728.00;;;7.45;99.33
10135;BME280;5107;48.850;8.924;2023-04-16T01:11:56;96724.56;;;7.45;99.38
10135;BME280;5107;48.850;8.924;2023-04-16T01:14:21;96727.50;;;7.42;99.37
10135;BME280;5107;48.850;8.924;2023-04-16T01:16:46;96727.63;;;7.40;99.84
10135;BME280;5107;48.850;8.924;2023-04-16T01:19:12;96727.50;;;7.42;99.57
10135;BME280;5107;48.850;8.924;2023-04-16T01:21:37;96727.03;;;7.46;99.52
10135;BME280;5107;48.850;8.924;2023-04-16T01:24:03;96727.84;;;7.47;99.15
10135;BME280;5107;48.850;8.924;2023-04-16T01:26:29;96729.63;;;7.46;99.10
10135;BME280;5107;48.850;8.924;2023-04-16T01:28:55;96738.31;;;7.47;99.21
10135;BME280;5107;48.850;8.924;2023-04-16T01:31:20;96727.50;;;7.42;99.06
10135;BME280;5107;48.850;8.924;2023-04-16T01:33:45;96730.47;;;7.47;99.36
10135;BME280;5107;48.850;8.924;2023-04-16T01:36:11;96733.84;;;7.39;99.58
10135;BME280;5107;48.850;8.924;2023-04-16T01:38:36;96736.84;;;7.44;99.46
10135;BME280;5107;48.850;8.924;2023-04-16T01:41:01;96734.81;;;7.38;99.43
10135;BME280;5107;48.850;8.924;2023-04-16T01:43:27;96736.78;;;7.36;100.00
10135;BME280;5107;48.850;8.924;2023-04-16T01:48:34;96742.81;;;7.37;100.00
10135;BME280;5107;48.850;8.924;2023-04-16T01:51:00;96741.31;;;7.34;100.00
10135;BME280;5107;48.850;8.924;2023-04-16T01:53:25;96738.72;;;7.34;100.00
10135;BME280;5107;48.850;8.924;2023-04-16T01:55:50;96732.50;;;7.35;100.00
10135;BME280;5107;48.850;8.924;2023-04-16T01:58:16;96747.38;;;7.35;100.00
10135;BME280;5107;48.850;8.924;2023-04-16T02:00:41;96738.84;;;7.33;100.00
10135;BME280;5107;48.850;8.924;2023-04-16T02:03:06;96747.13;;;7.28;100.00
10135;BME280;5107;48.850;8.924;2023-04-16T02:05:32;96744.69;;;7.27;100.00
10135;BME280;5107;48.850;8.924;2023-04-16T02:07:57;96741.25;;;7.26;100.00
10135;BME280;5107;48.850;8.924;2023-04-16T02:10:22;96745.13;;;7.22;100.00
10135;BME280;5107;48.850;8.924;2023-04-16T02:12:48;96743.63;;;7.19;100.00
10135;BME280;5107;48.850;8.924;2023-04-16T02:15:13;96738.63;;;7.26;100.00
10135;BME280;5107;48.850;8.924;2023-04-16T02:17:39;96743.63;;;7.19;100.00
10135;BME280;5107;48.850;8.924;2023-04-16T02:20:05;96740.03;;;7.20;100.00
10135;BME280;5107;48.850;8.924;2023-04-16T02:22:32;96745.78;;;7.24;100.00
10135;BME280;5107;48.850;8.924;2023-04-16T02:24:57;96747.13;;;7.28;100.00
10135;BME280;5107;48.850;8.924;2023-04-16T02:27:23;96747.94;;;7.29;100.00
10135;BME280;5107;48.850;8.924;2023-04-16T02:29:48;96747.38;;;7.35;100.00
10135;BME280;5107;48.850;8.924;2023-04-16T02:32:13;96745.06;;;7.32;100.00
10135;BME280;5107;48.850;8.924;2023-04-16T02:34:38;96740.78;;;7.31;100.00
10135;BME280;5107;48.850;8.924;2023-04-16T02:37:04;96750.44;;;7.30;100.00
10135;BME280;5107;48.850;8.924;2023-04-16T02:39:29;96751.09;;;7.32;100.00
10135;BME280;5107;48.850;8.924;2023-04-16T02:41:55;96750.28;;;7.32;100.00
10135;BME280;5107;48.850;8.924;2023-04-16T02:44:20;96750.66;;;7.37;100.00
10135;BME280;5107;48.850;8.924;2023-04-16T02:46:45;96758.44;;;7.29;100.00
10135;BME280;5107;48.850;8.924;2023-04-16T02:49:11;96749.09;;;7.26;100.00
10135;BME280;5107;48.850;8.924;2023-04-16T02:51:36;96756.94;;;7.26;100.00
10135;BME280;5107;48.850;8.924;2023-04-16T02:54:01;96753.78;;;7.22;100.00
10135;BME280;5107;48.850;8.924;2023-04-16T02:56:27;96754.84;;;7.30;100.00
10135;BME280;5107;48.850;8.924;2023-04-16T02:58:52;96752.59;;;7.17;100.00
10135;BME280;5107;48.850;8.924;2023-04-16T03:01:17;96754.53;;;7.15;100.00
10135;BME280;5107;48.850;8.924;2023-04-16T03:03:43;96755.34;;;7.15;100.00
10135;BME280;5107;48.850;8.924;2023-04-16T03:06:08;96754.53;;;7.15;100.00
10135;BME280;5107;48.850;8.924;2023-04-16T03:08:33;96761.84;;;7.11;100.00
10135;BME280;5107;48.850;8.924;2023-04-16T03:10:59;96765.53;;;7.18;100.00
10135;BME280;5107;48.850;8.924;2023-04-16T03:13:24;96764.25;;;7.22;100.00
10135;BME280;5107;48.850;8.924;2023-04-16T03:15:49;96764.13;;;7.24;100.00
10135;BME280;5107;48.850;8.924;2023-04-16T03:18:15;96773.06;;;7.21;100.00
10135;BME280;5107;48.850;8.924;2023-04-16T03:20:40;96757.38;;;7.21;100.00
10135;BME280;5107;48.850;8.924;2023-04-16T03:23:05;96758.66;;;7.17;100.00
10135;BME280;5107;48.850;8.924;2023-04-16T03:25:31;96762.59;;;7.21;100.00
10135;BME280;5107;48.850;8.924;2023-04-16T03:27:56;96763.44;;;7.22;100.00
10135;BME280;5107;48.850;8.924;2023-04-16T03:30:21;96769.06;;;7.27;100.00
10135;BME280;5107;48.850;8.924;2023-04-16T03:32:47;96771.41;;;7.20;100.00
10135;BME280;5107;48.850;8.924;2023-04-16T03:35:12;96766.50;;;7.17;100.00
10135;BME280;5107;48.850;8.924;2023-04-16T03:37:37;96777.34;;;7.22;100.00
10135;BME280;5107;48.850;8.924;2023-04-16T03:40:03;96770.84;;;7.27;100.00
10135;BME280;5107;48.850;8.924;2023-04-16T03:42:31;96784.38;;;7.22;100.00
10135;BME280;5107;48.850;8.924;2023-04-16T03:44:56;96777.25;;;7.14;100.00
10135;BME280;5107;48.850;8.924;2023-04-16T03:47:22;96775.91;;;7.10;100.00
10135;BME280;5107;48.850;8.924;2023-04-16T03:49:47;96782.41;;;7.06;100.00
10135;BME280;5107;48.850;8.924;2023-04-16T03:52:12;96780.75;;;7.05;100.00
10135;BME280;5107;48.850;8.924;2023-04-16T03:54:38;96790.78;;;7.10;100.00
10135;BME280;5107;48.850;8.924;2023-04-16T03:57:03;96786.81;;;7.06;100.00
10135;BME280;5107;48.850;8.924;2023-04-16T03:59:31;96786.66;;;7.07;100.00
10135;BME280;5107;48.850;8.924;2023-04-16T04:01:57;96792.84;;;7.06;100.00
10135;BME280;5107;48.850;8.924;2023-04-16T04:04:22;96785.69;;;7.08;100.00
10135;BME280;5107;48.850;8.924;2023-04-16T04:06:47;96788.59;;;7.05;100.00
10135;BME280;5107;48.850;8.924;2023-04-16T04:09:13;96789.41;;;7.06;100.00
10135;BME280;5107;48.850;8.924;2023-04-16T04:11:40;96792.44;;;7.11;100.00
10135;BME280;5107;48.850;8.924;2023-04-16T04:14:06;96788.81;;;7.12;100.00
10135;BME280;5107;48.850;8.924;2023-04-16T04:16:31;96792.13;;;7.14;100.00
10135;BME280;5107;48.850;8.924;2023-04-16T04:18:57;96793.22;;;7.11;100.00
10135;BME280;5107;48.850;8.924;2023-04-16T04:21:24;96793.50;;;7.18;100.00
10135;BME280;5107;48.850;8.924;2023-04-16T04:23:50;96797.31;;;7.23;100.00
10135;BME280;5107;48.850;8.924;2023-04-16T04:26:15;96794.31;;;7.18;100.00
10135;BME280;5107;48.850;8.924;2023-04-16T04:28:41;96802.59;;;7.14;100.00
10135;BME280;5107;48.850;8.924;2023-04-16T04:31:06;96801.63;;;7.15;100.00
10135;BME280;5107;48.850;8.924;2023-04-16T04:33:31;96806.56;;;7.18;100.00
10135;BME280;5107;48.850;8.924;2023-04-16T04:35:57;96815.38;;;7.17;100.00
10135;BME280;5107;48.850;8.924;2023-04-16T04:38:22;96812.03;;;7.24;100.00
10135;BME280;5107;48.850;8.924;2023-04-16T04:40:50;96817.66;;;7.30;100.00
10135;BME280;5107;48.850;8.924;2023-04-16T04:43:16;96819.75;;;7.26;100.00
10135;BME280;5107;48.850;8.924;2023-04-16T04:45:41;96818.41;;;7.40;100.00
10135;BME280;5107;48.850;8.924;2023-04-16T04:48:06;96821.53;;;7.26;100.00
10135;BME280;5107;48.850;8.924;2023-04-16T04:50:32;96823.84;;;7.29;100.00
10135;BME280;5107;48.850;8.924;2023-04-16T04:52:57;96826.19;;;7.32;100.00
10135;BME280;5107;48.850;8.924;2023-04-16T04:55:23;96828.84;;;7.22;100.00
10135;BME280;5107;48.850;8.924;2023-04-16T04:57:49;96837.09;;;7.27;100.00
10135;BME280;5107;48.850;8.924;2023-04-16T05:00:14;96830.94;;;7.18;100.00
10135;BME280;5107;48.850;8.924;2023-04-16T05:02:40;96837.16;;;7.17;100.00
10135;BME280;5107;48.850;8.924;2023-04-16T05:05:05;96827.66;;;7.16;100.00
10135;BME280;5107;48.850;8.924;2023-04-16T05:07:34;96834.13;;;7.12;100.00
10135;BME280;5107;48.850;8.924;2023-04-16T05:09:59;96842.66;;;7.14;100.00
10135;BME280;5107;48.850;8.924;2023-04-16T05:12:25;96846.78;;;7.17;100.00
10135;BME280;5107;48.850;8.924;2023-04-16T05:14:50;96845.41;;;7.13;100.00
10135;BME280;5107;48.850;8.924;2023-04-16T05:17:16;96849.53;;;7.15;100.00
10135;BME280;5107;48.850;8.924;2023-04-16T05:19:41;96855.38;;;7.09;100.00
10135;BME280;5107;48.850;8.924;2023-04-16T05:22:09;96848.03;;;7.13;100.00
10135;BME280;5107;48.850;8.924;2023-04-16T05:24:34;96859.19;;;7.15;100.00
10135;BME280;5107;48.850;8.924;2023-04-16T05:27:00;96859.88;;;7.17;100.00
10135;BME280;5107;48.850;8.924;2023-04-16T05:29:25;96860.97;;;7.14;100.00
10135;BME280;5107;48.850;8.924;2023-04-16T05:31:51;96866.78;;;7.08;100.00
10135;BME280;5107;48.850;8.924;2023-04-16T05:34:16;96870.09;;;7.10;100.00
10135;BME280;5107;48.850;8.924;2023-04-16T05:36:41;96870.91;;;7.11;100.00
10135;BME280;5107;48.850;8.924;2023-04-16T05:39:07;96868.31;;;7.11;100.00
10135;BME280;5107;48.850;8.924;2023-04-16T05:41:33;96879.00;;;7.17;100.00
10135;BME280;5107;48.850;8.924;2023-04-16T05:43:58;96877.50;;;7.15;100.00
10135;BME280;5107;48.850;8.924;2023-04-16T05:46:24;96875.84;;;7.14;100.00
10135;BME280;5107;48.850;8.924;2023-04-16T05:48:50;96879.38;;;7.22;100.00
10135;BME280;5107;48.850;8.924;2023-04-16T05:51:15;96876.91;;;7.21;100.00
10135;BME280;5107;48.850;8.924;2023-04-16T05:53:40;96884.63;;;7.22;100.00
10135;BME280;5107;48.850;8.924;2023-04-16T05:56:07;96886.56;;;7.20;100.00
10135;BME280;5107;48.850;8.924;2023-04-16T05:58:32;96890.53;;;7.24;100.00
10135;BME280;5107;48.850;8.924;2023-04-16T06:00:58;96892.06;;;7.27;100.00
10135;BME280;5107;48.850;8.924;2023-04-16T06:03:23;96898.13;;;7.28;100.00
10135;BME280;5107;48.850;8.924;2023-04-16T06:05:49;96896.72;;;7.33;100.00
10135;BME280;5107;48.850;8.924;2023-04-16T06:08:14;96898.50;;;7.33;100.00
10135;BME280;5107;48.850;8.924;2023-04-16T06:10:39;96894.50;;;7.29;100.00
10135;BME280;5107;48.850;8.924;2023-04-16T06:13:05;96899.75;;;7.29;100.00
10135;BME280;5107;48.850;8.924;2023-04-16T06:15:30;96898.66;;;7.21;100.00
10135;BME280;5107;48.850;8.924;2023-04-16T06:17:56;96893.56;;;7.20;100.00
10135;BME280;5107;48.850;8.924;2023-04-16T06:20:22;96904.47;;;7.25;100.00
10135;BME280;5107;48.850;8.924;2023-04-16T06:22:47;96901.59;;;7.18;100.00
10135;BME280;5107;48.850;8.924;2023-04-16T06:25:12;96903.25;;;7.19;100.00
10135;BME280;5107;48.850;8.924;2023-04-16T06:27:38;96901.16;;;7.23;100.00
10135;BME280;5107;48.850;8.924;2023-04-16T06:30:03;96904.00;;;7.30;100.00
10135;BME280;5107;48.850;8.924;2023-04-16T06:32:29;96916.81;;;7.33;100.00
10135;BME280;5107;48.850;8.924;2023-04-16T06:34:54;96911.97;;;7.38;100.00
10135;BME280;5107;48.850;8.924;2023-04-16T06:37:20;96913.63;;;7.39;100.00
10135;BME280;5107;48.850;8.924;2023-04-16T06:39:46;96913.91;;;7.36;100.00
10135;BME280;5107;48.850;8.924;2023-04-16T06:42:11;96914.56;;;7.38;100.00
10135;BME280;5107;48.850;8.924;2023-04-16T06:44:36;96919.53;;;7.41;100.00
10135;BME280;5107;48.850;8.924;2023-04-16T06:47:02;96911.69;;;7.41;100.00
10135;BME280;5107;48.850;8.924;2023-04-16T06:49:27;96920.38;;;7.41;99.71
10135;BME280;5107;48.850;8.924;2023-04-16T06:51:52;96913.47;;;7.40;99.94
10135;BME280;5107;48.850;8.924;2023-04-16T06:54:18;96917.28;;;7.46;99.67
10135;BME280;5107;48.850;8.924;2023-04-16T06:56:43;96920.69;;;7.29;99.50
10135;BME280;5107;48.850;8.924;2023-04-16T06:59:09;96925.09;;;7.28;99.89
10135;BME280;5107;48.850;8.924;2023-04-16T07:01:35;96923.72;;;7.34;100.00
10135;BME280;5107;48.850;8.924;2023-04-16T07:04:00;96921.38;;;7.31;99.69
10135;BME280;5107;48.850;8.924;2023-04-16T07:06:25;96925.63;;;7.32;99.72
10135;BME280;5107;48.850;8.924;2023-04-16T07:08:51;96930.31;;;7.28;99.88
10135;BME280;5107;48.850;8.924;2023-04-16T07:11:17;96933.06;;;7.36;99.32
10135;BME280;5107;48.850;8.924;2023-04-16T07:13:43;96935.53;;;7.38;99.31
10135;BME280;5107;48.850;8.924;2023-04-16T07:16:08;96935.53;;;7.38;99.42
10135;BME280;5107;48.850;8.924;2023-04-16T07:18:33;96932.25;;;7.36;99.46
10135;BME280;5107;48.850;8.924;2023-04-16T07:20:59;96930.72;;;7.33;99.54
10135;BME280;5107;48.850;8.924;2023-04-16T07:23:24;96932.75;;;7.39;99.33
10135;BME280;5107;48.850;8.924;2023-04-16T07:25:50;96930.44;;;7.36;99.09
10135;BME280;5107;48.850;8.924;2023-04-16T07:28:15;96940.47;;;7.41;98.90
10135;BME280;5107;48.850;8.924;2023-04-16T07:30:42;96936.91;;;7.42;98.82
10135;BME280;5107;48.850;8.924;2023-04-16T07:33:07;96938.22;;;7.46;98.85
10135;BME280;5107;48.850;8.924;2023-04-16T07:35:33;96943.09;;;7.41;99.16
10135;BME280;5107;48.850;8.924;2023-04-16T07:37:58;96939.66;;;7.40;98.62
10135;BME280;5107;48.850;8.924;2023-04-16T07:40:23;96941.81;;;7.45;98.88
10135;BME280;5107;48.850;8.924;2023-04-16T07:42:49;96946.78;;;7.48;98.45
10135;BME280;5107;48.850;8.924;2023-04-16T07:45:16;96949.00;;;7.43;98.35
10135;BME280;5107;48.850;8.924;2023-04-16T07:47:41;96955.47;;;7.48;98.31
10135;BME280;5107;48.850;8.924;2023-04-16T07:50:07;96951.44;;;7.54;98.47
10135;BME280;5107;48.850;8.924;2023-04-16T07:52:32;96954.88;;;7.54;98.01
10135;BME280;5107;48.850;8.924;2023-04-16T07:54:57;96952.81;;;7.58;97.91
10135;BME280;5107;48.850;8.924;2023-04-16T07:57:23;96961.63;;;7.57;97.61
10135;BME280;5107;48.850;8.924;2023-04-16T07:59:48;96964.28;;;7.75;98.09
10135;BME280;5107;48.850;8.924;2023-04-16T08:02:15;96967.41;;;7.60;96.73
10135;BME280;5107;48.850;8.924;2023-04-16T08:04:41;96959.88;;;7.48;97.00
10135;BME280;5107;48.850;8.924;2023-04-16T08:07:07;96962.06;;;7.52;97.69
10135;BME280;5107;48.850;8.924;2023-04-16T08:09:32;96964.69;;;7.52;97.50
10135;BME280;5107;48.850;8.924;2023-04-16T08:11:59;96977.34;;;7.57;97.12
10135;BME280;5107;48.850;8.924;2023-04-16T08:14:25;96976.47;;;7.66;97.45
10135;BME280;5107;48.850;8.924;2023-04-16T08:16:50;96982.56;;;7.57;96.88
10135;BME280;5107;48.850;8.924;2023-04-16T08:19:16;96981.00;;;7.64;96.75
10135;BME280;5107;48.850;8.924;2023-04-16T08:21:41;96979.78;;;7.68;96.83
10135;BME280;5107;48.850;8.924;2023-04-16T08:24:07;96990.97;;;7.60;96.58
10135;BME280;5107;48.850;8.924;2023-04-16T08:26:32;96992.91;;;7.58;96.65
10135;BME280;5107;48.850;8.924;2023-04-16T08:28:58;96993.19;;;7.55;96.87
10135;BME280;5107;48.850;8.924;2023-04-16T08:31:23;96992.59;;;7.61;96.64
10135;BME280;5107;48.850;8.924;2023-04-16T08:33:48;96991.34;;;7.66;96.44
10135;BME280;5107;48.850;8.924;2023-04-16T08:36:14;97005.50;;;7.73;96.70
10135;BME280;5107;48.850;8.924;2023-04-16T08:38:39;96991.19;;;7.77;96.38
10135;BME280;5107;48.850;8.924;2023-04-16T08:41:06;97002.03;;;7.82;96.30
10135;BME280;5107;48.850;8.924;2023-04-16T08:43:36;97000.59;;;7.87;96.30
10135;BME280;5107;48.850;8.924;2023-04-16T08:46:03;97002.75;;;8.02;96.75
10135;BME280;5107;48.850;8.924;2023-04-16T08:48:32;97005.38;;;8.02;95.53
10135;BME280;5107;48.850;8.924;2023-04-16T08:50:59;97005.16;;;7.95;95.21
10135;BME280;5107;48.850;8.924;2023-04-16T08:53:35;97002.44;;;8.05;95.23
10135;BME280;5107;48.850;8.924;2023-04-16T08:56:08;97010.22;;;7.96;95.21
10135;BME280;5107;48.850;8.924;2023-04-16T08:58:36;97008.00;;;8.02;95.07
10135;BME280;5107;48.850;8.924;2023-04-16T09:01:02;97013.91;;;8.04;95.41
10135;BME280;5107;48.850;8.924;2023-04-16T09:03:31;97011.22;;;8.13;95.49
10135;BME280;5107;48.850;8.924;2023-04-16T09:05:57;97017.25;;;8.23;95.09
10135;BME280;5107;48.850;8.924;2023-04-16T09:08:24;97012.06;;;8.14;94.34
10135;BME280;5107;48.850;8.924;2023-04-16T09:10:50;97019.44;;;8.00;94.99
10135;BME280;5107;48.850;8.924;2023-04-16T09:13:16;97014.91;;;8.03;95.33
10135;BME280;5107;48.850;8.924;2023-04-16T09:15:44;97018.38;;;7.93;95.66
10135;BME280;5107;48.850;8.924;2023-04-16T09:18:10;97015.91;;;7.92;96.11
10135;BME280;5107;48.850;8.924;2023-04-16T09:20:37;97023.63;;;7.93;96.11
10135;BME280;5107;48.850;8.924;2023-04-16T09:23:02;97021.66;;;7.95;96.46
10135;BME280;5107;48.850;8.924;2023-04-16T09:25:32;97024.97;;;7.97;95.85
10135;BME280;5107;48.850;8.924;2023-04-16T09:27:57;97027.81;;;8.04;96.00
10135;BME280;5107;48.850;8.924;2023-04-16T09:30:27;97022.75;;;8.03;95.99
10135;BME280;5107;48.850;8.924;2023-04-16T09:33:19;97032.88;;;8.15;96.20
10135;BME280;5107;48.850;8.924;2023-04-16T09:35:48;97022.47;;;8.23;95.80
10135;BME280;5107;48.850;8.924;2023-04-16T09:38:14;97021.66;;;8.23;94.80
10135;BME280;5107;48.850;8.924;2023-04-16T09:40:39;97029.88;;;8.37;95.08
10135;BME280;5107;48.850;8.924;2023-04-16T09:43:13;97032.16;;;8.50;94.43
10135;BME280;5107;48.850;8.924;2023-04-16T09:45:56;97032.81;;;8.52;94.37
10135;BME280;5107;48.850;8.924;2023-04-16T09:48:32;97038.00;;;8.62;94.03
10135;BME280;5107;48.850;8.924;2023-04-16T09:50:59;97033.47;;;8.54;93.79
10135;BME280;5107;48.850;8.924;2023-04-16T09:53:26;97046.25;;;8.67;93.34
10135;BME280;5107;48.850;8.924;2023-04-16T09:55:59;97043.25;;;8.62;92.62
10135;BME280;5107;48.850;8.924;2023-04-16T09:58:25;97048.50;;;8.62;92.67
10135;BME280;5107;48.850;8.924;2023-04-16T10:01:01;97049.00;;;8.65;92.79
10135;BME280;5107;48.850;8.924;2023-04-16T10:03:34;97051.13;;;8.62;92.59
10135;BME280;5107;48.850;8.924;2023-04-16T10:06:21;97054.31;;;8.56;92.33
10135;BME280;5107;48.850;8.924;2023-04-16T10:08:48;97061.63;;;8.62;92.62
10135;BME280;5107;48.850;8.924;2023-04-16T10:11:15;97054.09;;;8.49;92.47
10135;BME280;5107;48.850;8.924;2023-04-16T10:13:40;97059.47;;;8.48;93.02
10135;BME280;5107;48.850;8.924;2023-04-16T10:16:07;97057.16;;;8.45;93.23
10135;BME280;5107;48.850;8.924;2023-04-16T10:18:35;97054.09;;;8.49;92.73
10135;BME280;5107;48.850;8.924;2023-04-16T10:21:01;97059.06;;;8.52;93.88
10135;BME280;5107;48.850;8.924;2023-04-16T10:23:27;97061.81;;;8.51;93.25
10135;BME280;5107;48.850;8.924;2023-04-16T10:25:53;97070.88;;;8.56;92.85
10135;BME280;5107;48.850;8.924;2023-04-16T10:28:19;97073.03;;;8.43;93.30
10135;BME280;5107;48.850;8.924;2023-04-16T10:30:47;97075.25;;;8.38;93.61
10135;BME280;5107;48.850;8.924;2023-04-16T10:33:21;97076.69;;;8.32;93.41
10135;BME280;5107;48.850;8.924;2023-04-16T10:35:47;97072.91;;;8.45;94.11
10135;BME280;5107;48.850;8.924;2023-04-16T10:38:23;97070.94;;;8.47;94.05
10135;BME280;5107;48.850;8.924;2023-04-16T10:40:49;97072.66;;;8.38;93.50
10135;BME280;5107;48.850;8.924;2023-04-16T10:43:18;97079.25;;;8.42;93.85
10135;BME280;5107;48.850;8.924;2023-04-16T10:45:46;97073.09;;;8.33;93.73
10135;BME280;5107;48.850;8.924;2023-04-16T10:48:12;97071.41;;;8.42;94.08
10135;BME280;5107;48.850;8.924;2023-04-16T10:50:39;97074.53;;;8.46;94.19
10135;BME280;5107;48.850;8.924;2023-04-16T10:53:25;97072.97;;;8.35;94.68
10135;BME280;5107;48.850;8.924;2023-04-16T10:58:30;97069.78;;;8.59;94.46
10135;BME280;5107;48.850;8.924;2023-04-16T11:01:06;97070.28;;;8.62;94.03
10135;BME280;5107;48.850;8.924;2023-04-16T11:03:35;97067.50;;;8.64;94.36
10135;BME280;5107;48.850;8.924;2023-04-16T11:06:22;97071.72;;;8.57;94.61
10135;BME280;5107;48.850;8.924;2023-04-16T11:08:50;97063.56;;;8.78;95.10
10135;BME280;5107;48.850;8.924;2023-04-16T11:11:17;97074.28;;;8.84;94.59
10135;BME280;5107;48.850;8.924;2023-04-16T11:13:43;97073.22;;;8.77;94.59
10135;BME280;5107;48.850;8.924;2023-04-16T11:16:15;97070.22;;;8.90;94.61
10135;BME280;5107;48.850;8.924;2023-04-16T11:18:41;97076.00;;;8.93;94.13
10135;BME280;5107;48.850;8.924;2023-04-16T11:21:10;97070.81;;;9.01;94.10
10135;BME280;5107;48.850;8.924;2023-04-16T11:26:28;97076.00;;;9.11;93.57
10135;BME280;5107;48.850;8.924;2023-04-16T11:28:55;97077.47;;;8.96;93.32
10135;BME280;5107;48.850;8.924;2023-04-16T11:31:22;97074.78;;;8.88;94.13
10135;BME280;5107;48.850;8.924;2023-04-16T11:33:48;97074.13;;;9.03;94.65
10135;BME280;5107;48.850;8.924;2023-04-16T11:36:13;97066.91;;;9.05;94.62
10135;BME280;5107;48.850;8.924;2023-04-16T11:38:39;97077.41;;;9.05;94.27
10135;BME280;5107;48.850;8.924;2023-04-16T11:41:06;97072.97;;;9.24;94.75
10135;BME280;5107;48.850;8.924;2023-04-16T11:43:31;97078.44;;;9.30;94.57
10135;BME280;5107;48.850;8.924;2023-04-16T11:46:01;97072.22;;;9.13;93.56
10135;BME280;5107;48.850;8.924;2023-04-16T11:51:12;97081.84;;;9.05;94.17
10135;BME280;5107;48.850;8.924;2023-04-16T11:53:48;97078.38;;;9.04;93.92
10135;BME280;5107;48.850;8.924;2023-04-16T11:56:13;97075.47;;;9.07;94.19
10135;BME280;5107;48.850;8.924;2023-04-16T11:58:39;97081.53;;;9.08;93.68
10135;BME280;5107;48.850;8.924;2023-04-16T12:01:05;97081.47;;;9.00;93.82
10135;BME280;5107;48.850;8.924;2023-04-16T12:03:41;97080.34;;;8.85;94.19
10135;BME280;5107;48.850;8.924;2023-04-16T12:06:10;97092.78;;;8.83;94.39
10135;BME280;5107;48.850;8.924;2023-04-16T12:08:36;97088.50;;;8.82;95.19
10135;BME280;5107;48.850;8.924;2023-04-16T12:11:01;97092.09;;;8.81;94.73
10135;BME280;5107;48.850;8.924;2023-04-16T12:13:27;97087.81;;;8.80;95.16
10135;BME280;5107;48.850;8.924;2023-04-16T12:15:54;97091.28;;;8.80;94.86
10135;BME280;5107;48.850;8.924;2023-04-16T12:18:24;97095.63;;;8.71;94.63
10135;BME280;5107;48.850;8.924;2023-04-16T12:20:52;97099.97;;;8.81;95.28
10135;BME280;5107;48.850;8.924;2023-04-16T12:23:22;97091.13;;;8.82;94.61
10135;BME280;5107;48.850;8.924;2023-04-16T12:25:48;97092.03;;;8.72;94.90
10135;BME280;5107;48.850;8.924;2023-04-16T12:28:33;97097.75;;;8.86;95.03
10135;BME280;5107;48.850;8.924;2023-04-16T12:30:59;97097.91;;;8.84;95.37
10135;BME280;5107;48.850;8.924;2023-04-16T12:33:25;97103.13;;;8.84;95.25
10135;BME280;5107;48.850;8.924;2023-04-16T12:35:51;97102.31;;;8.84;94.86
10135;BME280;5107;48.850;8.924;2023-04-16T12:38:17;97099.59;;;8.75;94.95
10135;BME280;5107;48.850;8.924;2023-04-16T12:40:42;97098.09;;;8.73;95.14
10135;BME280;5107;48.850;8.924;2023-04-16T12:43:11;97099.41;;;8.87;95.23
10135;BME280;5107;48.850;8.924;2023-04-16T12:45:38;97104.84;;;8.75;94.90
10135;BME280;5107;48.850;8.924;2023-04-16T12:48:03;97116.78;;;8.88;95.60
10135;BME280;5107;48.850;8.924;2023-04-16T12:50:29;97112.28;;;8.98;95.34
10135;BME280;5107;48.850;8.924;2023-04-16T12:52:55;97110.88;;;8.86;95.02
10135;BME280;5107;48.850;8.924;2023-04-16T12:55:20;97113.31;;;8.87;94.97
10135;BME280;5107;48.850;8.924;2023-04-16T12:57:46;97100.66;;;8.83;95.05
10135;BME280;5107;48.850;8.924;2023-04-16T13:00:13;97106.00;;;8.91;95.33
10135;BME280;5107;48.850;8.924;2023-04-16T13:02:38;97105.00;;;8.74;95.40
10135;BME280;5107;48.850;8.924;2023-04-16T13:05:05;97102.38;;;8.74;95.84
10135;BME280;5107;48.850;8.924;2023-04-16T13:07:31;97102.53;;;8.72;96.01
10135;BME280;5107;48.850;8.924;2023-04-16T13:09:58;97106.13;;;8.71;96.14
10135;BME280;5107;48.850;8.924;2023-04-16T13:12:23;97103.56;;;8.80;95.86
10135;BME280;5107;48.850;8.924;2023-04-16T13:14:49;97097.34;;;8.81;96.04
10135;BME280;5107;48.850;8.924;2023-04-16T13:17:14;97096.94;;;8.85;96.02
10135;BME280;5107;48.850;8.924;2023-04-16T13:19:40;97104.03;;;8.93;96.02
10135;BME280;5107;48.850;8.924;2023-04-16T13:22:05;97097.50;;;8.97;95.32
10135;BME280;5107;48.850;8.924;2023-04-16T13:24:30;97109.59;;;8.90;94.64